Manvel, North Dakota
Current Conditions -  °F | °C
As of 2:53 PM on Sunday 23 Nov 2014 (Local Time) from KGFK Reporting Station
Overcast Overcast  
Wind Chill: 17°   Ceiling: 900
Heat Index: 29°   Visibility: 10mi
Dew Point: 26°   Wind: 17mph
Humidity: 89%   Direction: 360°N
Pressure: 29.46"   Gusts: NA
Location:  48.08°N, 97.18°W
Report Text: KGFK 232053Z 36015KT 10SM BKN009 BKN015 OVC021 M02/M03 A2946 RMK AO2 SLP986 T10171033 53016
Loading
Personal Weather Stations






























Interactive Weather Map New forecast layout! Learn more

10-Day Weather Forecast

Advertisements
Track Severe Weather on mobile